Time;durP1;ratioP1;P1;durP2;ratioP2;P2;SDS_P1;SDS_P2;PMS_P1;PMS_P2;Temp;Humidity;BMP_temperature;BMP_pressure;BME280_temperature;BME280_humidity;BME280_pressure;Samples;Min_cycle;Max_cycle;Signal;HPM_P1;HPM_P2
2021/08/07 03:31:12;;;;;;;6.70;2.70;;;;;;;20.73;59.08;97886.69;7962221;23;20236;-79
2021/08/07 03:34:34;;;;;;;4.07;2.70;;;;;;;20.66;59.41;97891.69;6871746;28;20209;-79
2021/08/07 03:37:55;;;;;;;4.43;2.50;;;;;;;20.56;59.84;97903.59;6863379;28;20220;-79
2021/08/07 03:41:17;;;;;;;3.53;2.50;;;;;;;20.56;60.04;97886.31;6863588;28;20914;-79
2021/08/07 03:44:38;;;;;;;3.97;2.90;;;;;;;20.61;59.10;97836.97;6864725;28;20220;-79
2021/08/07 03:48:01;;;;;;;3.03;2.67;;;;;;;20.91;58.88;97877.72;6864059;28;20241;-79
2021/08/07 03:51:23;;;;;;;3.10;2.80;;;;;;;20.67;58.77;97855.81;6864291;28;20236;-79
2021/08/07 03:54:44;;;;;;;8.83;2.93;;;;;;;20.35;60.29;97882.19;6863887;28;20252;-79
2021/08/07 03:58:06;;;;;;;3.27;2.97;;;;;;;19.98;61.18;97873.78;6863206;28;20376;-79
2021/08/07 04:01:28;;;;;;;4.53;3.10;;;;;;;19.47;63.33;97883.47;6863662;28;20275;-79
2021/08/07 04:04:50;;;;;;;4.50;2.97;;;;;;;20.20;61.39;97877.69;6842400;28;20243;-79
2021/08/07 04:08:12;;;;;;;2.93;2.60;;;;;;;20.76;59.38;97861.44;6835925;29;20213;-79
2021/08/07 04:11:34;;;;;;;3.23;2.77;;;;;;;20.61;59.37;97856.97;6836885;29;20238;-78
2021/08/07 04:14:55;;;;;;;6.13;2.97;;;;;;;20.51;59.38;97867.25;6836814;29;20237;-79
2021/08/07 04:18:17;;;;;;;3.33;2.50;;;;;;;20.44;59.06;97862.09;6836304;29;20550;-79
2021/08/07 04:21:40;;;;;;;6.67;2.93;;;;;;;20.20;60.11;97860.44;6836558;29;20265;-79
2021/08/07 04:25:01;;;;;;;4.80;2.47;;;;;;;20.49;59.14;97861.22;6836001;28;20305;-79
2021/08/07 04:28:23;;;;;;;4.10;2.37;;;;;;;20.45;59.47;97871.13;6835701;29;20357;-79
2021/08/07 04:31:44;;;;;;;3.77;2.50;;;;;;;20.45;59.26;97855.50;6836364;29;20236;-79
2021/08/07 04:35:07;;;;;;;4.60;2.60;;;;;;;19.93;60.34;97879.28;6835766;29;20242;-79
2021/08/07 04:38:31;;;;;;;5.40;2.77;;;;;;;20.16;59.54;97860.19;6835775;29;20248;-79
2021/08/07 04:41:52;;;;;;;3.53;2.33;;;;;;;20.48;59.59;97846.72;6835996;29;20272;-79
2021/08/07 04:45:14;;;;;;;3.00;2.70;;;;;;;20.56;59.03;97837.03;6845854;28;20210;-79
2021/08/07 04:48:36;;;;;;;3.73;2.57;;;;;;;20.57;59.02;97827.72;6862292;28;20267;-79
2021/08/07 04:51:58;;;;;;;5.10;2.53;;;;;;;20.72;58.91;97835.75;6862540;28;20259;-79
2021/08/07 04:55:24;;;;;;;4.83;2.67;;;;;;;20.60;58.25;97800.56;6862424;28;20240;-79
2021/08/07 04:58:45;;;;;;;3.47;2.60;;;;;;;21.02;57.52;97832.63;6863825;28;20276;-79
2021/08/07 05:02:07;;;;;;;6.20;2.33;;;;;;;20.70;57.26;97788.66;6845374;28;20230;-80
2021/08/07 05:05:28;;;;;;;2.67;2.43;;;;;;;19.94;59.90;97809.78;6838941;28;20386;-79
2021/08/07 05:08:50;;;;;;;3.90;2.67;;;;;;;20.11;60.95;97837.56;6835699;28;20205;-79
2021/08/07 05:12:13;;;;;;;3.43;2.80;;;;;;;20.29;60.49;97845.03;6856529;28;20699;-79
2021/08/07 05:15:35;;;;;;;2.90;2.30;;;;;;;20.74;59.43;97856.25;6862382;28;20217;-79
2021/08/07 05:18:56;;;;;;;5.13;2.50;;;;;;;20.93;58.59;97854.41;6860937;28;20687;-80
2021/08/07 05:22:18;;;;;;;4.40;2.30;;;;;;;20.91;58.36;97842.91;6861982;28;20299;-79
2021/08/07 05:25:40;;;;;;;2.80;2.50;;;;;;;21.44;57.19;97838.88;6861716;28;20216;-79
2021/08/07 05:29:03;;;;;;;3.10;2.07;;;;;;;21.57;55.76;97838.94;6861128;28;20691;-79
2021/08/07 05:32:24;;;;;;;9.90;2.50;;;;;;;21.67;56.49;97840.72;6861255;28;20237;-79
2021/08/07 05:35:46;;;;;;;2.87;2.03;;;;;;;21.65;56.29;97840.19;6861858;28;20629;-79
2021/08/07 05:39:07;;;;;;;2.97;2.33;;;;;;;21.25;57.40;97838.84;6860886;28;20336;-79
2021/08/07 05:42:29;;;;;;;4.00;2.57;;;;;;;21.47;57.29;97846.47;6861211;28;20330;-79
2021/08/07 05:45:52;;;;;;;2.60;2.30;;;;;;;21.58;56.52;97853.44;6861587;28;20254;-78
2021/08/07 05:49:13;;;;;;;3.87;2.10;;;;;;;21.75;57.04;97851.00;6857723;28;20237;-78
2021/08/07 05:52:37;;;;;;;4.07;2.30;;;;;;;21.63;56.45;97832.25;6841464;28;20223;-78
2021/08/07 05:55:58;;;;;;;2.97;2.20;;;;;;;22.40;55.03;97836.94;6861265;28;20198;-78
2021/08/07 05:59:20;;;;;;;5.00;2.50;;;;;;;22.69;53.90;97847.63;6839607;28;20214;-78
2021/08/07 06:02:43;;;;;;;3.97;2.33;;;;;;;22.43;54.15;97849.28;6834299;29;20386;-78
2021/08/07 06:06:04;;;;;;;3.57;2.37;;;;;;;22.31;55.31;97846.19;6858174;28;20838;-78
2021/08/07 06:09:26;;;;;;;3.80;2.30;;;;;;;22.17;55.60;97859.06;6855214;28;20280;-78
2021/08/07 06:12:48;;;;;;;5.00;2.50;;;;;;;21.98;55.97;97867.38;6856275;28;20230;-78
2021/08/07 06:16:09;;;;;;;3.43;2.57;;;;;;;21.78;56.09;97864.13;6834198;28;20252;-78
2021/08/07 06:19:32;;;;;;;6.47;2.80;;;;;;;22.51;54.71;97868.63;6834040;28;20907;-78
2021/08/07 06:22:54;;;;;;;2.77;2.43;;;;;;;22.49;55.00;97878.28;6834277;28;20232;-78
2021/08/07 06:26:16;;;;;;;3.10;2.50;;;;;;;22.43;54.66;97863.81;6834409;28;20215;-78
2021/08/07 06:29:37;;;;;;;4.57;2.20;;;;;;;22.04;55.45;97854.34;6835923;28;20280;-78
2021/08/07 06:32:59;;;;;;;4.13;2.30;;;;;;;22.75;54.39;97839.00;6840046;28;20241;-78
2021/08/07 06:36:22;;;;;;;4.13;2.33;;;;;;;23.24;53.38;97827.25;6840257;28;20212;-78
2021/08/07 06:39:43;;;;;;;4.63;2.43;;;;;;;23.72;51.44;97817.28;6839499;28;20676;-79
2021/08/07 06:43:05;;;;;;;2.70;2.47;;;;;;;24.35;51.43;97807.63;6840146;28;20248;-78
2021/08/07 06:46:26;;;;;;;3.40;2.30;;;;;;;25.44;47.30;97802.75;6839911;28;20697;-78
2021/08/07 06:49:48;;;;;;;3.70;2.07;;;;;;;25.35;48.02;97796.41;6839664;28;20210;-78
2021/08/07 06:53:11;;;;;;;2.37;2.10;;;;;;;25.05;47.97;97810.28;6840364;28;20289;-78
2021/08/07 06:56:32;;;;;;;2.83;2.10;;;;;;;26.05;46.19;97813.44;6840608;28;20217;-78
2021/08/07 06:59:54;;;;;;;3.20;2.37;;;;;;;26.52;44.40;97817.00;6844078;28;20210;-78
2021/08/07 07:03:16;;;;;;;4.03;2.40;;;;;;;26.00;43.57;97805.31;6844562;28;20241;-78
2021/08/07 07:06:37;;;;;;;2.70;2.40;;;;;;;25.21;46.23;97801.25;6845034;28;20327;-78
2021/08/07 07:10:00;;;;;;;4.23;2.20;;;;;;;25.97;43.88;97788.59;6849051;28;20613;-79
2021/08/07 07:13:22;;;;;;;2.77;2.10;;;;;;;26.00;44.31;97783.22;6847797;28;20235;-78
2021/08/07 07:16:44;;;;;;;2.10;1.90;;;;;;;26.85;43.33;97795.91;6838266;28;20240;-80
2021/08/07 07:20:06;;;;;;;5.27;1.90;;;;;;;26.39;43.61;97813.34;6836827;29;20212;-78
2021/08/07 07:23:28;;;;;;;3.03;1.80;;;;;;;27.06;43.69;97816.94;6837400;28;20238;-79
2021/08/07 07:26:51;;;;;;;2.73;1.80;;;;;;;27.45;39.75;97810.16;6837808;28;20251;-78
2021/08/07 07:30:13;;;;;;;2.00;1.80;;;;;;;27.76;39.89;97808.59;6852750;28;20244;-79
2021/08/07 07:33:35;;;;;;;3.43;1.90;;;;;;;28.23;38.56;97809.94;6859366;28;20569;-78
2021/08/07 07:36:56;;;;;;;4.33;2.20;;;;;;;27.07;39.82;97831.59;6863710;28;20240;-77
2021/08/07 07:40:18;;;;;;;3.67;1.90;;;;;;;27.47;40.37;97835.56;6836310;28;20283;-78
2021/08/07 07:43:41;;;;;;;4.40;2.00;;;;;;;27.28;41.21;97836.03;6841543;28;20260;-77
2021/08/07 07:47:03;;;;;;;3.33;1.77;;;;;;;26.98;40.79;97812.28;6863219;28;20239;-78
2021/08/07 07:50:24;;;;;;;3.53;1.60;;;;;;;27.13;39.97;97799.81;6844105;28;20208;-78
2021/08/07 07:53:46;;;;;;;3.37;1.87;;;;;;;27.42;40.20;97808.88;6836939;28;20288;-78
2021/08/07 07:57:07;;;;;;;4.30;1.90;;;;;;;27.86;40.38;97805.44;6856132;28;20201;-78
2021/08/07 08:00:30;;;;;;;3.20;2.20;;;;;;;27.31;42.22;97815.97;6854181;28;20221;-78
2021/08/07 08:03:52;;;;;;;3.90;2.03;;;;;;;28.28;40.85;97806.13;6863019;28;20280;-77
2021/08/07 08:07:13;;;;;;;2.13;1.80;;;;;;;28.49;38.49;97796.59;6863287;28;20213;-77
2021/08/07 08:10:38;;;;;;;2.43;1.80;;;;;;;28.99;37.79;97801.84;6862470;28;20261;-77
2021/08/07 08:14:00;;;;;;;4.33;1.53;;;;;;;27.87;36.80;97795.16;6849503;28;20285;-77
2021/08/07 08:17:23;;;;;;;1.67;1.57;;;;;;;28.73;36.17;97779.19;6838568;28;20215;-78
2021/08/07 08:20:44;;;;;;;2.47;1.60;;;;;;;27.16;39.79;97779.78;6862255;28;20602;-78
2021/08/07 08:24:06;;;;;;;2.37;2.00;;;;;;;27.93;37.64;97758.59;6862700;28;20628;-78
2021/08/07 08:27:28;;;;;;;2.03;1.83;;;;;;;28.22;38.66;97746.50;6841340;28;20213;-77
2021/08/07 08:30:50;;;;;;;3.60;2.30;;;;;;;28.02;38.70;97739.88;6835320;29;20322;-78
2021/08/07 08:34:13;;;;;;;3.00;1.90;;;;;;;28.32;37.86;97754.38;6844902;28;20204;-80
2021/08/07 08:37:34;;;;;;;3.07;1.97;;;;;;;28.61;37.46;97752.22;6863384;28;20232;-78
2021/08/07 08:40:57;;;;;;;5.67;2.17;;;;;;;27.56;38.06;97748.50;6860728;28;20227;-78
2021/08/07 08:44:19;;;;;;;4.00;2.10;;;;;;;28.38;38.98;97733.63;6850387;28;20234;-78
2021/08/07 08:47:41;;;;;;;2.53;1.93;;;;;;;29.03;37.63;97742.53;6862425;28;20346;-78
2021/08/07 08:51:08;;;;;;;2.23;1.40;;;;;;;29.28;36.87;97732.16;6861174;28;20317;-78
2021/08/07 08:54:30;;;;;;;2.83;1.50;;;;;;;28.70;36.35;97705.78;6861983;28;20191;-78
2021/08/07 08:57:51;;;;;;;2.00;1.60;;;;;;;28.55;37.18;97736.97;6861351;28;20236;-79
2021/08/07 09:01:13;;;;;;;2.60;1.73;;;;;;;27.96;38.00;97730.19;6861496;28;20240;-78
2021/08/07 09:04:34;;;;;;;2.60;1.80;;;;;;;28.17;37.96;97736.47;6861775;28;20237;-79
2021/08/07 09:07:57;;;;;;;1.67;1.53;;;;;;;28.46;36.63;97722.44;6861469;28;20216;-78
2021/08/07 09:11:22;;;;;;;2.63;1.87;;;;;;;28.39;36.28;97727.75;6860615;28;20324;-78
2021/08/07 09:14:44;;;;;;;4.23;2.10;;;;;;;27.77;38.67;97721.59;6860955;28;20201;-78
2021/08/07 09:18:18;;;;;;;2.40;1.87;;;;;;;28.42;37.73;97717.94;6859528;28;20205;-78
2021/08/07 09:21:39;;;;;;;3.43;1.70;;;;;;;28.79;37.11;97719.53;6834144;28;20284;-78
2021/08/07 09:25:09;;;;;;;3.63;2.47;;;;;;;28.87;38.13;97715.78;6834208;28;20226;-79
2021/08/07 09:28:45;;;;;;;2.47;2.20;;;;;;;28.73;37.79;97715.38;6833711;28;20213;-79
2021/08/07 09:32:07;;;;;;;3.60;2.33;;;;;;;28.90;37.84;97718.69;6833089;29;20937;-79
2021/08/07 09:35:30;;;;;;;2.40;1.80;;;;;;;28.23;38.22;97701.00;6834235;28;20194;-78
2021/08/07 09:38:51;;;;;;;2.83;1.90;;;;;;;29.00;38.32;97721.00;6834511;28;20245;-78
2021/08/07 09:42:14;;;;;;;2.37;1.60;;;;;;;29.32;36.71;97724.75;6834622;28;20227;-80
2021/08/07 09:46:01;;;;;;;2.20;1.70;;;;;;;28.67;38.07;97736.97;6904348;23;20315;-89
2021/08/07 09:49:41;;;;;;;2.90;2.13;;;;;;;28.69;37.59;97729.13;6864218;28;20265;-89
2021/08/07 09:53:04;;;;;;;3.03;2.20;;;;;;;28.17;39.25;97730.91;6867381;28;20197;-84
2021/08/07 09:56:26;;;;;;;3.63;2.80;;;;;;;27.42;39.82;97717.50;6868273;28;20216;-87
2021/08/07 09:59:50;;;;;;;16.33;10.60;;;;;;;27.56;39.87;97767.91;6866585;28;20209;-84
2021/08/07 10:03:17;;;;;;;31.60;20.77;;;;;;;27.10;42.06;97773.59;6865557;28;20266;-86
2021/08/07 10:06:41;;;;;;;10.80;6.10;;;;;;;26.65;44.30;97791.94;6870752;28;20273;-92
2021/08/07 10:10:03;;;;;;;4.80;2.30;;;;;;;27.04;43.68;97790.72;6873806;28;20684;-88
2021/08/07 10:13:29;;;;;;;5.30;2.30;;;;;;;26.94;45.22;97824.31;6879004;28;20229;-86
2021/08/07 10:17:04;;;;;;;4.60;2.20;;;;;;;26.45;46.06;97806.47;6881419;28;20205;-88
2021/08/07 10:20:26;;;;;;;4.03;2.20;;;;;;;27.10;43.58;97806.81;6872953;28;20213;-90
2021/08/07 10:23:48;;;;;;;4.40;2.50;;;;;;;26.83;45.97;97787.94;6867237;28;20243;-91
2021/08/07 10:27:11;;;;;;;5.57;2.93;;;;;;;27.09;46.47;97796.91;6845635;28;20217;-89
2021/08/07 10:30:33;;;;;;;3.97;2.60;;;;;;;27.00;46.59;97800.84;6837731;29;20202;-85
2021/08/07 10:34:01;;;;;;;4.03;2.77;;;;;;;26.62;47.63;97787.09;6847264;28;20699;-84
2021/08/07 10:37:23;;;;;;;6.60;2.40;;;;;;;26.11;47.07;97767.91;6853144;28;20203;-84
2021/08/07 10:40:45;;;;;;;3.00;2.47;;;;;;;26.04;51.22;97772.31;6867161;28;20217;-84
2021/08/07 10:44:07;;;;;;;4.77;2.80;;;;;;;25.91;52.35;97768.63;6861692;28;20323;-85
2021/08/07 10:47:35;;;;;;;4.00;2.67;;;;;;;25.72;53.35;97728.66;6860160;28;20217;-85
2021/08/07 10:51:01;;;;;;;4.60;2.90;;;;;;;25.93;53.22;97765.50;6859198;28;20254;-89
2021/08/07 10:54:33;;;;;;;4.17;2.67;;;;;;;26.12;51.81;97779.78;6846448;28;20221;-85
2021/08/07 10:57:54;;;;;;;2.77;2.50;;;;;;;25.63;53.91;97778.38;6849090;28;20198;-85
2021/08/07 11:01:29;;;;;;;6.47;3.27;;;;;;;25.37;55.02;97752.72;6842328;28;20210;-84
2021/08/07 11:04:52;;;;;;;3.60;2.63;;;;;;;25.69;52.43;97754.16;6857007;28;20237;-86
2021/08/07 11:08:19;;;;;;;4.27;2.60;;;;;;;25.46;53.52;97772.88;6859102;28;20185;-86
2021/08/07 11:11:41;;;;;;;4.20;2.20;;;;;;;25.42;53.57;97765.56;6859378;28;20210;-86
2021/08/07 11:15:06;;;;;;;4.57;2.13;;;;;;;25.04;54.83;97786.59;6861140;28;20240;-85
2021/08/07 11:18:28;;;;;;;4.80;2.83;;;;;;;24.64;56.62;97796.09;6864517;28;20208;-86
2021/08/07 11:21:50;;;;;;;5.20;2.50;;;;;;;24.91;54.40;97784.81;6864515;28;20214;-85
2021/08/07 11:25:16;;;;;;;3.73;2.57;;;;;;;24.53;55.08;97802.97;6863867;28;20233;-85
2021/08/07 11:29:07;;;;;;;4.63;2.47;;;;;;;24.45;56.74;97809.28;6863683;28;20189;-83
2021/08/07 11:32:28;;;;;;;2.90;2.60;;;;;;;24.13;57.46;97829.72;6865609;28;20254;-82
2021/08/07 11:36:07;;;;;;;5.60;3.40;;;;;;;24.63;57.03;97817.34;6864992;28;20228;-83
2021/08/07 11:40:02;;;;;;;4.13;3.10;;;;;;;24.48;57.14;97805.91;6864467;28;20203;-83
2021/08/07 11:43:27;;;;;;;6.30;2.83;;;;;;;24.60;56.61;97815.22;6839695;28;20233;-82
2021/08/07 11:46:49;;;;;;;3.43;2.57;;;;;;;24.27;56.86;97815.84;6837896;29;20197;-82
2021/08/07 11:50:12;;;;;;;3.47;2.70;;;;;;;24.28;57.07;97814.72;6837576;29;20224;-83
2021/08/07 11:53:34;;;;;;;3.10;2.60;;;;;;;24.17;57.64;97821.63;6838642;28;20284;-84
2021/08/07 11:56:56;;;;;;;4.37;3.30;;;;;;;24.26;57.13;97805.97;6839408;29;20210;-82
2021/08/07 12:00:21;;;;;;;3.33;2.87;;;;;;;24.41;57.04;97809.09;6839304;29;20218;-82
2021/08/07 12:03:45;;;;;;;4.17;2.57;;;;;;;24.52;55.98;97815.16;6840034;28;20240;-82
2021/08/07 12:07:10;;;;;;;4.53;2.27;;;;;;;24.62;55.85;97825.94;6840862;29;20221;-82
2021/08/07 12:10:32;;;;;;;5.43;2.90;;;;;;;24.48;56.02;97805.91;6837396;29;20194;-82
2021/08/07 12:13:56;;;;;;;4.93;2.80;;;;;;;24.28;56.04;97795.44;6841124;28;20251;-81
2021/08/07 12:17:18;;;;;;;2.80;2.60;;;;;;;24.42;56.07;97805.22;6842070;29;20229;-83
2021/08/07 12:20:45;;;;;;;4.13;2.53;;;;;;;24.72;55.93;97806.34;6836467;29;20204;-83
2021/08/07 12:24:08;;;;;;;3.20;2.77;;;;;;;24.84;55.07;97795.50;6859045;28;20281;-83
2021/08/07 12:27:30;;;;;;;4.47;2.63;;;;;;;24.63;54.97;97786.19;6856628;28;20209;-83
2021/08/07 12:30:54;;;;;;;3.43;2.40;;;;;;;24.68;54.13;97789.63;6862382;28;20201;-83
2021/08/07 12:34:19;;;;;;;3.90;2.60;;;;;;;23.79;56.12;97785.41;6863361;28;20314;-82
2021/08/07 12:37:42;;;;;;;4.37;2.60;;;;;;;24.48;55.04;97808.66;6887839;28;20283;-83
2021/08/07 12:41:04;;;;;;;4.93;2.77;;;;;;;24.35;55.88;97804.03;6886276;28;20201;-82
2021/08/07 12:44:32;;;;;;;3.07;2.77;;;;;;;24.37;56.89;97816.38;6861227;28;20225;-84
2021/08/07 12:47:57;;;;;;;5.73;2.93;;;;;;;24.46;56.51;97821.94;6840591;29;20197;-84
2021/08/07 12:51:25;;;;;;;3.20;2.80;;;;;;;24.59;56.68;97821.06;6837857;29;20222;-82
2021/08/07 12:55:05;;;;;;;2.87;2.50;;;;;;;24.35;55.47;97821.41;6858831;28;20248;-82
2021/08/07 12:58:26;;;;;;;3.17;2.73;;;;;;;24.08;58.18;97810.56;6856140;28;20208;-81
2021/08/07 13:02:01;;;;;;;3.57;2.90;;;;;;;24.68;56.46;97830.97;6845194;29;20202;-82
2021/08/07 13:05:32;;;;;;;4.13;2.63;;;;;;;24.83;53.36;97832.50;6840703;28;20320;-84
2021/08/07 13:08:55;;;;;;;5.77;2.73;;;;;;;24.52;55.14;97818.72;6838050;29;20618;-83
2021/08/07 13:12:22;;;;;;;3.63;2.40;;;;;;;24.76;53.89;97838.47;6838820;29;20216;-83
2021/08/07 13:15:47;;;;;;;3.03;2.10;;;;;;;24.40;54.40;97834.22;6840086;28;20227;-82
2021/08/07 13:19:17;;;;;;;2.50;2.30;;;;;;;24.08;55.82;97838.09;6839927;29;20201;-82
2021/08/07 13:22:42;;;;;;;4.43;2.60;;;;;;;24.33;55.11;97823.69;6837498;29;20201;-82
2021/08/07 13:26:09;;;;;;;2.70;2.40;;;;;;;24.55;54.61;97837.38;6836887;28;20241;-83
2021/08/07 13:29:31;;;;;;;2.67;2.47;;;;;;;24.51;53.23;97855.69;6837286;28;20205;-83
2021/08/07 13:33:03;;;;;;;3.47;2.30;;;;;;;24.42;55.53;97870.56;6838441;29;20201;-84
2021/08/07 13:36:26;;;;;;;3.63;2.83;;;;;;;24.02;55.69;97844.88;6835360;29;20260;-83
2021/08/07 13:39:49;;;;;;;2.67;2.07;;;;;;;23.88;54.07;97849.66;6835283;28;20249;-81
2021/08/07 13:43:13;;;;;;;3.37;2.20;;;;;;;23.80;55.30;97888.91;6837218;29;20288;-82
2021/08/07 13:46:35;;;;;;;3.60;2.60;;;;;;;24.01;56.22;97889.25;6851174;28;20307;-83
2021/08/07 13:49:57;;;;;;;5.00;2.83;;;;;;;23.83;57.27;97866.25;6860372;28;20210;-83
2021/08/07 13:53:19;;;;;;;4.37;3.10;;;;;;;23.62;58.20;97883.56;6860399;28;20252;-82
2021/08/07 13:56:40;;;;;;;3.30;2.83;;;;;;;23.63;57.63;97875.00;6862225;28;20204;-83
2021/08/07 14:00:04;;;;;;;3.40;2.30;;;;;;;23.30;58.41;97865.31;6866847;28;20216;-81
2021/08/07 14:03:26;;;;;;;4.47;2.10;;;;;;;22.96;57.67;97870.41;6866230;28;20705;-82
2021/08/07 14:06:47;;;;;;;2.50;2.30;;;;;;;23.11;57.62;97861.03;6872466;28;20231;-84
2021/08/07 14:10:09;;;;;;;3.10;1.77;;;;;;;22.50;57.74;97844.19;6864923;28;20219;-81
2021/08/07 14:13:31;;;;;;;3.43;2.50;;;;;;;22.13;60.25;97820.41;6866426;28;20232;-81
2021/08/07 14:16:54;;;;;;;3.67;2.10;;;;;;;22.44;59.43;97821.50;6863579;28;20296;-82
2021/08/07 14:20:16;;;;;;;2.33;1.90;;;;;;;22.52;58.75;97823.53;6862923;28;20226;-82
2021/08/07 14:23:38;;;;;;;3.13;1.87;;;;;;;22.88;56.93;97827.16;6862817;28;20248;-81
2021/08/07 14:26:59;;;;;;;2.80;1.80;;;;;;;22.67;57.18;97825.16;6862971;28;20240;-82
2021/08/07 14:30:21;;;;;;;4.13;2.20;;;;;;;22.70;58.36;97849.25;6862176;28;20202;-82
2021/08/07 14:33:44;;;;;;;2.93;2.20;;;;;;;22.85;57.09;97841.53;6862798;28;20231;-83
2021/08/07 14:37:06;;;;;;;2.33;2.13;;;;;;;22.14;59.37;97826.72;6862601;28;20206;-82
2021/08/07 14:40:27;;;;;;;2.50;2.30;;;;;;;22.23;59.01;97803.75;6861572;28;20307;-82
2021/08/07 14:43:49;;;;;;;2.43;2.10;;;;;;;22.01;58.99;97825.56;6850503;28;20264;-83
2021/08/07 14:47:11;;;;;;;2.17;2.00;;;;;;;22.40;58.82;97822.38;6835473;29;20299;-83
2021/08/07 14:50:34;;;;;;;3.83;2.70;;;;;;;22.18;60.48;97820.31;6837460;28;20209;-82
2021/08/07 14:53:55;;;;;;;4.43;2.60;;;;;;;22.20;60.54;97845.53;6842600;28;20681;-83
2021/08/07 14:57:17;;;;;;;3.10;2.43;;;;;;;21.99;60.92;97818.75;6867638;28;20209;-83
2021/08/07 15:00:38;;;;;;;2.57;2.37;;;;;;;22.01;61.17;97835.75;6867011;28;20225;-83
2021/08/07 15:04:00;;;;;;;5.73;2.40;;;;;;;21.44;63.25;97831.47;6852474;28;20232;-83
2021/08/07 15:07:23;;;;;;;3.87;2.73;;;;;;;20.80;65.12;97807.72;6840380;29;20245;-85
2021/08/07 15:10:45;;;;;;;2.87;2.50;;;;;;;20.84;66.43;97839.69;6839844;29;20688;-83
2021/08/07 15:14:06;;;;;;;3.70;2.50;;;;;;;20.44;67.57;97845.66;6845258;28;20266;-83
2021/08/07 15:17:28;;;;;;;4.07;2.60;;;;;;;20.74;67.06;97849.97;6851297;28;20220;-83
2021/08/07 15:20:50;;;;;;;3.53;2.60;;;;;;;;;;6868004;28;20205;-82
2021/08/07 15:24:13;;;;;;;3.93;2.50;;;;;;;20.72;65.38;97813.81;6872296;28;20299;-83
2021/08/07 15:27:35;;;;;;;3.37;2.40;;;;;;;21.08;64.82;97830.34;6870312;28;20207;-84
2021/08/07 15:30:58;;;;;;;2.70;2.23;;;;;;;20.84;64.95;97823.25;6867964;28;20638;-83
2021/08/07 15:34:19;;;;;;;2.73;2.17;;;;;;;21.60;62.72;97827.34;6869559;28;20257;-83
2021/08/07 15:37:41;;;;;;;2.40;2.20;;;;;;;21.46;63.38;97822.91;6870000;28;20207;-85
2021/08/07 15:41:04;;;;;;;4.00;2.20;;;;;;;21.86;62.47;97838.75;6870495;28;20212;-83
2021/08/07 15:44:26;;;;;;;5.30;2.30;;;;;;;21.54;62.53;97838.72;6887816;23;20298;-82
2021/08/07 15:47:48;;;;;;;4.00;2.63;;;;;;;21.68;62.64;97817.66;6892735;28;20207;-82
2021/08/07 15:51:11;;;;;;;3.90;2.50;;;;;;;21.78;62.07;97825.72;6891168;28;20214;-83
2021/08/07 15:54:33;;;;;;;3.10;2.10;;;;;;;21.94;61.39;97813.34;6893999;28;20235;-83
2021/08/07 15:57:56;;;;;;;3.43;2.57;;;;;;;22.05;60.96;97784.59;6919761;28;20210;-82
2021/08/07 16:01:17;;;;;;;2.70;2.10;;;;;;;22.39;60.01;97796.03;6898986;28;20286;-84
2021/08/07 16:04:39;;;;;;;2.40;2.20;;;;;;;22.27;59.02;97806.69;6904458;28;20231;-83
2021/08/07 16:08:01;;;;;;;3.13;1.90;;;;;;;22.13;59.68;97814.13;6920599;28;20749;-83
2021/08/07 16:11:23;;;;;;;4.60;2.10;;;;;;;22.66;57.87;97823.53;6898257;28;20575;-83
2021/08/07 16:14:46;;;;;;;3.43;2.00;;;;;;;22.81;57.60;97820.44;6896052;28;20721;-83
2021/08/07 16:18:08;;;;;;;2.43;1.97;;;;;;;22.66;57.19;97827.06;6897131;28;20208;-84
2021/08/07 16:21:29;;;;;;;1.97;1.87;;;;;;;22.75;57.39;97821.69;6899417;28;20206;-83
2021/08/07 16:24:51;;;;;;;4.40;1.90;;;;;;;22.61;55.79;97791.47;6923179;28;20251;-84
2021/08/07 16:28:13;;;;;;;1.90;1.80;;;;;;;22.82;57.16;97784.41;6915080;28;20283;-83
2021/08/07 16:31:35;;;;;;;3.03;2.00;;;;;;;22.73;57.01;97797.25;6895188;28;20210;-83
2021/08/07 16:34:57;;;;;;;2.37;2.17;;;;;;;22.75;57.39;97796.94;6895234;28;20228;-84
2021/08/07 16:38:19;;;;;;;2.80;1.97;;;;;;;22.77;57.28;97797.47;6894551;28;20220;-84
2021/08/07 16:41:41;;;;;;;2.10;1.60;;;;;;;22.42;57.63;97807.22;6894857;28;20364;-84
2021/08/07 16:45:02;;;;;;;2.07;1.57;;;;;;;22.30;57.88;97798.66;6913305;28;20710;-83
2021/08/07 16:48:25;;;;;;;3.13;1.60;;;;;;;22.47;57.20;97800.81;6910048;28;21086;-83
2021/08/07 16:51:47;;;;;;;1.90;1.80;;;;;;;22.35;57.93;97803.22;6920321;28;20219;-84
2021/08/07 16:55:09;;;;;;;1.70;1.60;;;;;;;21.79;58.85;97787.00;6894495;28;20607;-83
2021/08/07 16:58:31;;;;;;;1.90;1.80;;;;;;;21.74;59.46;97798.06;6912850;28;20201;-84
2021/08/07 17:01:53;;;;;;;2.07;1.80;;;;;;;22.18;58.41;97801.09;6921107;28;20677;-84
2021/08/07 17:05:16;;;;;;;3.17;2.20;;;;;;;21.73;59.47;97814.81;6920547;28;20254;-83
2021/08/07 17:08:37;;;;;;;2.00;1.70;;;;;;;21.79;60.10;97830.09;6894064;28;20286;-83
2021/08/07 17:11:59;;;;;;;2.33;1.67;;;;;;;22.18;58.30;97816.78;6894126;28;20193;-84
2021/08/07 17:15:21;;;;;;;2.07;1.97;;;;;;;22.51;57.52;97805.44;6893606;28;20363;-84
2021/08/07 17:18:42;;;;;;;2.03;1.87;;;;;;;22.40;56.66;97800.38;6893546;28;20744;-84
2021/08/07 17:22:06;;;;;;;1.70;1.60;;;;;;;22.27;57.68;97809.44;6895051;28;20233;-83
2021/08/07 17:25:28;;;;;;;3.13;1.80;;;;;;;21.85;58.41;97807.75;6894828;28;20243;-83
2021/08/07 17:28:49;;;;;;;2.17;1.70;;;;;;;21.97;58.14;97810.84;6895078;28;20572;-84
2021/08/07 17:32:11;;;;;;;2.00;1.70;;;;;;;22.05;57.95;97834.84;6896052;28;20201;-83
2021/08/07 17:35:33;;;;;;;2.20;2.00;;;;;;;21.55;58.78;97824.69;6895548;28;20225;-84
2021/08/07 17:38:56;;;;;;;3.00;1.80;;;;;;;21.67;58.87;97788.59;6912447;28;20223;-84
2021/08/07 17:42:18;;;;;;;3.50;1.50;;;;;;;21.78;58.22;97795.53;6921994;28;20610;-84
2021/08/07 17:45:39;;;;;;;1.83;1.50;;;;;;;21.66;58.46;97800.66;6908993;28;20227;-83
2021/08/07 17:49:01;;;;;;;47.47;17.80;;;;;;;21.53;59.18;97787.72;6910590;28;20298;-84
2021/08/07 17:52:23;;;;;;;3.77;2.70;;;;;;;21.94;57.56;97810.59;6918798;28;20203;-83
2021/08/07 17:55:46;;;;;;;4.63;1.53;;;;;;;21.57;58.09;97816.97;6936329;28;20229;-85
2021/08/07 17:59:07;;;;;;;2.70;1.50;;;;;;;21.63;58.99;97812.22;6943489;28;20219;-85
2021/08/07 18:02:29;;;;;;;1.50;1.40;;;;;;;21.08;59.98;97791.97;6911530;28;20674;-85
2021/08/07 18:05:51;;;;;;;1.50;1.40;;;;;;;21.45;60.10;97815.81;6913216;28;20231;-85
2021/08/07 18:09:12;;;;;;;1.63;1.33;;;;;;;21.04;60.49;97833.16;6915384;28;20212;-85
2021/08/07 18:12:35;;;;;;;0.97;0.97;;;;;;;21.30;58.96;97816.06;6904351;28;20210;-84
2021/08/07 18:15:57;;;;;;;1.87;1.30;;;;;;;21.35;59.27;97805.81;6892797;28;20695;-84
2021/08/07 18:19:18;;;;;;;1.90;1.37;;;;;;;22.06;57.37;97809.00;6891468;28;20239;-84
2021/08/07 18:22:40;;;;;;;1.87;1.20;;;;;;;21.32;59.18;97830.28;6888933;28;20211;-84
2021/08/07 18:26:02;;;;;;;3.33;0.97;;;;;;;21.28;59.21;97862.13;6888855;28;20592;-84
2021/08/07 18:29:25;;;;;;;2.73;1.10;;;;;;;21.59;58.58;97846.88;6890687;28;20204;-85
2021/08/07 18:32:46;;;;;;;1.90;1.10;;;;;;;21.37;58.69;97861.16;6891413;28;20298;-84
2021/08/07 18:36:08;;;;;;;1.70;1.10;;;;;;;21.19;59.32;97883.91;6890617;28;20239;-84
2021/08/07 18:39:30;;;;;;;1.50;1.27;;;;;;;21.62;58.42;97865.47;6891111;28;20246;-85
2021/08/07 18:42:51;;;;;;;1.63;1.37;;;;;;;21.35;58.82;97896.31;6890430;28;20205;-84
2021/08/07 18:46:14;;;;;;;3.20;1.00;;;;;;;20.86;59.77;97891.47;6890240;28;20238;-84
2021/08/07 18:49:36;;;;;;;1.07;0.93;;;;;;;21.50;58.42;97870.59;6888708;28;20209;-85
2021/08/07 18:52:58;;;;;;;2.07;1.17;;;;;;;21.92;56.95;97865.81;6888432;28;20208;-85
2021/08/07 18:56:19;;;;;;;3.20;1.20;;;;;;;22.16;56.79;97877.47;6888974;28;20229;-85
2021/08/07 18:59:41;;;;;;;1.10;0.97;;;;;;;21.94;56.37;97874.56;6888449;28;20212;-85
2021/08/07 19:03:04;;;;;;;0.90;0.90;;;;;;;21.39;57.87;97848.00;6889787;28;20216;-85
2021/08/07 19:06:25;;;;;;;1.00;1.00;;;;;;;21.39;58.91;97877.31;6887841;28;20374;-85
2021/08/07 19:09:47;;;;;;;1.67;1.33;;;;;;;21.69;58.10;97847.53;6888415;28;20202;-84
2021/08/07 19:13:09;;;;;;;1.47;1.37;;;;;;;21.17;59.57;97852.41;6889454;28;20214;-86
2021/08/07 19:16:31;;;;;;;3.83;1.20;;;;;;;21.12;60.10;97852.50;6890333;28;20344;-84
2021/08/07 19:19:54;;;;;;;3.63;1.07;;;;;;;21.68;57.74;97848.66;6890029;28;20215;-85
2021/08/07 19:23:16;;;;;;;1.27;1.17;;;;;;;21.57;58.58;97857.31;6890070;28;20208;-85
2021/08/07 19:26:37;;;;;;;2.33;1.40;;;;;;;22.20;57.53;97889.47;6890744;28;20229;-85